Time;durP1;ratioP1;P1;durP2;ratioP2;P2;SDS_P1;SDS_P2;PMS_P1;PMS_P2;Temp;Humidity;BMP_temperature;BMP_pressure;BME280_temperature;BME280_humidity;BME280_pressure;Samples;Min_cycle;Max_cycle;Signal;HPM_P1;HPM_P2
2022/08/19 00:00:08;;;;;;;11.85;8.60;;;;;;;27.90;47.83;99760.97;6271158;22;20496;-72
2022/08/19 00:02:35;;;;;;;9.68;8.23;;;;;;;27.92;48.26;99769.00;6271386;22;20003;-72
2022/08/19 00:05:01;;;;;;;12.65;9.05;;;;;;;27.90;48.15;99763.75;6271521;22;20011;-72
2022/08/19 00:07:27;;;;;;;10.05;8.18;;;;;;;27.87;48.42;99761.50;6271444;22;20078;-73
2022/08/19 00:09:53;;;;;;;12.65;8.63;;;;;;;27.86;48.24;99762.56;6271063;22;20035;-72
2022/08/19 00:12:19;;;;;;;10.88;8.18;;;;;;;27.80;48.60;99741.56;6269669;22;20043;-72
2022/08/19 00:14:45;;;;;;;10.07;7.88;;;;;;;27.77;48.58;99730.19;6271641;22;20444;-72
2022/08/19 00:17:10;;;;;;;9.95;8.30;;;;;;;27.78;48.74;99740.97;6271241;22;20012;-72
2022/08/19 00:19:37;;;;;;;8.88;7.97;;;;;;;27.78;48.43;99748.41;6269877;22;20066;-72
2022/08/19 00:22:04;;;;;;;9.52;8.18;;;;;;;27.76;48.60;99748.66;6270686;22;20425;-72
2022/08/19 00:24:31;;;;;;;9.02;7.97;;;;;;;27.72;48.71;99741.16;6270409;22;20014;-72
2022/08/19 00:26:57;;;;;;;10.40;8.30;;;;;;;27.73;48.81;99742.84;6271038;22;20004;-72
2022/08/19 00:29:24;;;;;;;9.20;8.27;;;;;;;27.72;49.03;99735.66;6269782;22;20003;-73
2022/08/19 00:31:54;;;;;;;12.27;8.38;;;;;;;27.67;48.75;99732.84;6271198;22;20387;-72
2022/08/19 00:34:20;;;;;;;9.55;8.43;;;;;;;27.69;49.03;99738.91;6271550;22;20023;-72
2022/08/19 00:36:45;;;;;;;10.23;8.45;;;;;;;27.70;48.70;99735.91;6271657;22;20470;-72
2022/08/19 00:39:13;;;;;;;10.57;8.40;;;;;;;27.68;48.88;99740.03;6270894;22;20070;-72
2022/08/19 00:41:39;;;;;;;15.00;8.82;;;;;;;27.55;48.92;99726.66;6271240;22;20046;-72
2022/08/19 00:44:10;;;;;;;9.70;8.50;;;;;;;27.61;49.24;99742.16;6270846;22;20010;-72
2022/08/19 00:46:39;;;;;;;12.43;8.45;;;;;;;27.61;49.06;99747.66;6271441;22;20023;-72
2022/08/19 00:49:26;;;;;;;12.68;8.40;;;;;;;27.59;49.14;99749.84;6270860;22;20011;-72
2022/08/19 00:51:57;;;;;;;11.98;8.70;;;;;;;27.56;49.32;99753.94;6268905;22;20004;-72
2022/08/19 00:54:24;;;;;;;9.52;8.48;;;;;;;27.53;49.69;99742.63;6269463;22;20003;-73
2022/08/19 00:56:50;;;;;;;10.57;8.75;;;;;;;27.47;49.98;99738.97;6269443;22;20004;-72
2022/08/19 00:59:17;;;;;;;12.40;9.00;;;;;;;27.44;50.02;99728.44;6271378;22;20007;-72
2022/08/19 01:01:45;;;;;;;11.15;8.45;;;;;;;27.44;49.95;99727.63;6267258;22;20432;-75
2022/08/19 01:04:11;;;;;;;11.15;8.77;;;;;;;27.37;49.84;99730.56;6269325;22;20007;-75
2022/08/19 01:06:39;;;;;;;14.75;9.27;;;;;;;27.32;50.10;99722.28;6271201;22;20023;-74
2022/08/19 01:09:05;;;;;;;12.38;9.05;;;;;;;27.34;50.18;99724.78;6271770;22;20014;-74
2022/08/19 01:11:35;;;;;;;14.02;8.55;;;;;;;27.30;50.14;99729.94;6271670;22;20084;-75
2022/08/19 01:14:00;;;;;;;15.18;9.23;;;;;;;27.19;50.55;99717.13;6270060;22;19999;-75
2022/08/19 01:16:28;;;;;;;11.38;8.65;;;;;;;27.24;50.43;99730.16;6271521;22;20337;-75
2022/08/19 01:18:54;;;;;;;9.93;8.65;;;;;;;27.17;50.59;99729.47;6271465;22;20444;-75
2022/08/19 01:21:39;;;;;;;12.30;9.27;;;;;;;27.16;50.69;99728.66;6271490;22;20107;-75
2022/08/19 01:24:05;;;;;;;11.73;9.30;;;;;;;27.13;50.73;99723.66;6271191;22;20432;-75
2022/08/19 01:26:30;;;;;;;9.70;8.75;;;;;;;27.08;51.09;99723.56;6271640;22;20023;-74
2022/08/19 01:28:58;;;;;;;10.20;9.15;;;;;;;27.03;51.33;99714.41;6271108;22;20069;-75
2022/08/19 01:31:30;;;;;;;11.23;8.80;;;;;;;27.00;51.41;99717.69;6271501;22;20027;-75
2022/08/19 01:33:56;;;;;;;11.02;9.07;;;;;;;26.97;51.58;99724.53;6271137;22;20003;-75
2022/08/19 01:36:25;;;;;;;14.13;9.48;;;;;;;26.86;51.66;99720.00;6270998;22;20034;-74
2022/08/19 01:38:50;;;;;;;11.95;9.88;;;;;;;26.80;52.04;99723.75;6271339;22;20337;-74
2022/08/19 01:41:17;;;;;;;10.65;9.55;;;;;;;26.78;52.10;99733.34;6271256;22;19999;-75
2022/08/19 01:43:43;;;;;;;10.48;9.20;;;;;;;26.68;52.44;99720.28;6271478;22;20011;-75
2022/08/19 01:46:08;;;;;;;46.88;12.48;;;;;;;26.71;52.38;99735.44;6269270;22;20068;-75
2022/08/19 01:48:37;;;;;;;52.20;12.60;;;;;;;26.62;52.90;99734.19;6269251;22;20003;-74
2022/08/19 01:51:03;;;;;;;25.08;10.15;;;;;;;26.41;53.66;99702.78;6270678;22;20011;-75
2022/08/19 01:53:28;;;;;;;11.23;10.13;;;;;;;26.46;53.61;99719.34;6271311;22;20003;-75
2022/08/19 01:55:55;;;;;;;16.02;9.77;;;;;;;26.37;53.83;99716.19;6270376;22;19999;-75
2022/08/19 01:58:24;;;;;;;14.18;10.13;;;;;;;26.29;54.27;99716.63;6270492;22;20018;-75
2022/08/19 02:04:11;;;;;;;9.70;8.80;;;;;;;25.68;54.63;99642.47;6193992;22;20036;-72
2022/08/19 02:06:37;;;;;;;9.63;8.55;;;;;;;26.09;54.69;99710.78;6176446;23;20004;-72
2022/08/19 02:09:06;;;;;;;9.95;8.77;;;;;;;25.92;54.60;99685.19;6175844;23;20794;-72
2022/08/19 02:11:33;;;;;;;16.48;10.35;;;;;;;26.02;54.69;99714.81;6176447;23;20016;-72
2022/08/19 02:14:01;;;;;;;12.30;9.23;;;;;;;26.07;54.62;99720.38;6177050;23;20446;-72
2022/08/19 02:16:28;;;;;;;12.95;9.77;;;;;;;25.98;54.87;99705.38;6175033;23;20445;-69
2022/08/19 02:18:54;;;;;;;11.60;10.15;;;;;;;26.03;54.95;99709.06;6174145;23;20011;-70
2022/08/19 02:21:22;;;;;;;14.80;10.02;;;;;;;26.04;54.86;99718.97;6176598;23;20068;-70
2022/08/19 02:23:49;;;;;;;17.48;9.95;;;;;;;26.03;54.86;99717.31;6176933;23;20068;-70
2022/08/19 02:26:15;;;;;;;13.18;9.65;;;;;;;25.96;55.19;99711.06;6174642;23;20008;-70
2022/08/19 02:28:42;;;;;;;10.85;9.55;;;;;;;25.92;55.35;99712.66;6175065;23;20050;-70
2022/08/19 02:31:17;;;;;;;11.15;9.70;;;;;;;25.79;55.60;99707.50;6177076;23;20012;-70
2022/08/19 02:33:43;;;;;;;12.05;9.30;;;;;;;25.78;55.88;99700.34;6177784;23;20554;-70
2022/08/19 02:36:09;;;;;;;11.25;9.13;;;;;;;25.73;56.48;99704.91;6173656;23;20009;-70
2022/08/19 02:38:36;;;;;;;14.63;10.35;;;;;;;25.65;56.29;99692.41;6173353;23;20020;-70
2022/08/19 02:41:13;;;;;;;17.20;10.57;;;;;;;25.65;57.03;99702.53;6175395;23;20027;-70
2022/08/19 02:43:40;;;;;;;17.17;10.93;;;;;;;25.49;57.07;99676.72;6175289;23;20013;-70
2022/08/19 02:46:33;;;;;;;16.45;10.85;;;;;;;25.54;57.12;99697.97;6175074;23;20020;-70
2022/08/19 02:49:02;;;;;;;16.98;10.27;;;;;;;25.50;56.79;99697.59;6167905;23;20009;-70
2022/08/19 02:51:35;;;;;;;12.73;10.20;;;;;;;25.51;56.59;99701.19;6173249;23;20080;-70
2022/08/19 02:54:00;;;;;;;13.85;10.07;;;;;;;25.42;56.63;99686.19;6173388;23;20088;-70
2022/08/19 02:56:27;;;;;;;10.98;9.80;;;;;;;25.51;56.73;99695.69;6174367;23;20008;-70
2022/08/19 02:58:54;;;;;;;12.40;9.98;;;;;;;25.50;56.76;99694.84;6175063;23;20445;-70
2022/08/19 03:01:32;;;;;;;12.90;10.23;;;;;;;25.27;56.83;99655.66;6176813;23;20009;-70
2022/08/19 03:04:00;;;;;;;14.20;9.80;;;;;;;25.44;57.29;99695.03;6175951;23;20010;-70
2022/08/19 03:06:27;;;;;;;13.93;9.48;;;;;;;25.37;57.49;99697.09;6176338;23;20048;-70
2022/08/19 03:08:53;;;;;;;11.57;10.38;;;;;;;25.22;57.60;99685.75;6176593;23;20091;-71
2022/08/19 03:11:25;;;;;;;12.23;10.13;;;;;;;25.29;57.86;99702.91;6176971;23;20013;-70
2022/08/19 03:13:51;;;;;;;14.60;10.75;;;;;;;25.26;58.18;99720.72;6176906;23;20037;-70
2022/08/19 03:16:23;;;;;;;16.38;10.50;;;;;;;25.18;58.32;99726.59;6176882;23;20016;-70
2022/08/19 03:18:49;;;;;;;19.75;11.00;;;;;;;25.13;58.71;99734.72;6177401;23;20012;-70
2022/08/19 03:21:21;;;;;;;26.42;11.55;;;;;;;25.06;59.03;99720.31;6175885;23;20005;-70
2022/08/19 03:23:46;;;;;;;23.20;10.70;;;;;;;24.99;59.05;99736.06;6175997;23;20001;-70
2022/08/19 03:26:14;;;;;;;21.45;11.30;;;;;;;24.93;59.41;99733.44;6176248;23;20558;-70
2022/08/19 03:28:41;;;;;;;12.07;10.15;;;;;;;24.82;59.72;99723.34;6176644;23;20016;-70
2022/08/19 03:31:10;;;;;;;13.65;10.93;;;;;;;24.70;60.04;99711.53;6176737;23;20048;-70
2022/08/19 03:33:36;;;;;;;13.23;10.43;;;;;;;24.69;60.18;99721.66;6175490;23;20082;-70
2022/08/19 03:36:14;;;;;;;12.10;10.43;;;;;;;24.71;60.57;99740.63;6174786;23;20040;-70
2022/08/19 03:38:46;;;;;;;17.95;11.52;;;;;;;24.63;60.89;99743.72;6175256;23;20388;-71
2022/08/19 03:41:15;;;;;;;15.93;11.25;;;;;;;24.58;61.14;99743.59;6175182;23;20009;-70
2022/08/19 03:43:42;;;;;;;21.10;10.68;;;;;;;24.37;61.54;99715.69;6175274;23;20017;-71
2022/08/19 03:46:20;;;;;;;18.52;12.10;;;;;;;24.50;61.71;99749.44;6174034;23;20016;-70
2022/08/19 03:48:47;;;;;;;15.80;10.45;;;;;;;24.38;62.07;99739.28;6174468;23;20446;-70
2022/08/19 03:51:19;;;;;;;18.63;12.10;;;;;;;24.28;62.16;99724.53;6176055;23;20030;-71
2022/08/19 03:53:45;;;;;;;17.95;11.77;;;;;;;24.37;62.29;99751.34;6176379;23;20108;-70
2022/08/19 03:56:12;;;;;;;18.10;11.45;;;;;;;24.26;62.67;99743.94;6176627;23;20035;-70
2022/08/19 03:58:38;;;;;;;20.50;11.75;;;;;;;24.29;62.84;99757.19;6175005;23;20035;-71
2022/08/19 04:01:08;;;;;;;18.10;11.55;;;;;;;24.24;63.10;99759.78;6178873;23;20043;-71
2022/08/19 04:03:35;;;;;;;15.30;12.57;;;;;;;24.23;63.03;99768.25;6176393;23;20437;-72
2022/08/19 04:06:13;;;;;;;20.10;11.90;;;;;;;24.18;63.38;99766.22;6176231;23;20005;-72
2022/08/19 04:08:40;;;;;;;14.50;11.93;;;;;;;24.17;63.66;99769.19;6177624;23;20334;-72
2022/08/19 04:11:11;;;;;;;22.38;13.10;;;;;;;24.15;64.20;99766.69;6176670;23;20031;-72
2022/08/19 04:13:38;;;;;;;18.80;12.85;;;;;;;24.05;64.12;99757.34;6177761;23;20084;-72
2022/08/19 04:16:05;;;;;;;20.23;12.27;;;;;;;24.02;64.40;99747.72;6177529;23;20005;-72
2022/08/19 04:18:32;;;;;;;16.13;12.07;;;;;;;24.14;64.51;99769.66;6176491;23;20016;-72
2022/08/19 04:20:58;;;;;;;22.83;12.57;;;;;;;23.98;64.09;99754.72;6176184;23;20036;-72
2022/08/19 04:23:24;;;;;;;20.98;12.40;;;;;;;24.11;64.75;99770.13;6175965;23;19997;-72
2022/08/19 04:25:49;;;;;;;17.25;11.73;;;;;;;24.04;64.69;99753.78;6178235;23;20015;-72
2022/08/19 04:28:15;;;;;;;14.55;11.95;;;;;;;24.09;64.37;99756.66;6176248;23;20009;-72
2022/08/19 04:30:47;;;;;;;23.92;12.73;;;;;;;24.18;64.34;99768.94;6178170;23;20040;-72
2022/08/19 04:33:15;;;;;;;16.80;11.63;;;;;;;24.09;64.08;99745.69;6177663;23;20326;-72
2022/08/19 04:35:42;;;;;;;15.93;12.15;;;;;;;24.23;63.70;99771.84;6178222;23;20088;-72
2022/08/19 04:38:09;;;;;;;17.08;12.57;;;;;;;24.29;63.43;99781.00;6176196;23;20013;-72
2022/08/19 04:43:24;;;;;;;17.48;11.55;;;;;;;24.43;63.20;99787.94;6177499;23;20506;-72
2022/08/19 04:45:51;;;;;;;14.48;11.90;;;;;;;24.35;63.04;99761.69;6178478;23;20033;-72
2022/08/19 04:48:26;;;;;;;17.98;11.55;;;;;;;24.41;62.84;99770.91;6177604;23;20013;-72
2022/08/19 04:50:58;;;;;;;19.27;12.13;;;;;;;24.55;62.61;99779.72;6176083;23;20100;-72
2022/08/19 04:53:32;;;;;;;18.33;12.25;;;;;;;24.56;62.55;99789.63;6177632;23;20377;-72
2022/08/19 04:55:59;;;;;;;15.57;11.20;;;;;;;24.58;62.47;99787.47;6177916;23;20437;-72
2022/08/19 04:58:27;;;;;;;13.45;11.88;;;;;;;24.61;62.25;99795.22;6175999;23;20530;-73
2022/08/19 05:00:53;;;;;;;14.23;11.30;;;;;;;24.64;61.85;99797.53;6178233;23;20452;-72
2022/08/19 05:03:19;;;;;;;13.68;11.35;;;;;;;24.67;61.82;99802.53;6175086;23;20028;-71
2022/08/19 05:05:48;;;;;;;19.25;12.57;;;;;;;24.69;62.12;99800.41;6175794;23;20011;-72
2022/08/19 05:08:19;;;;;;;16.40;11.98;;;;;;;24.63;61.82;99796.66;6176788;23;20009;-70
2022/08/19 05:10:45;;;;;;;21.00;11.98;;;;;;;24.78;61.99;99810.75;6176561;23;20108;-73
2022/08/19 05:13:11;;;;;;;18.40;11.25;;;;;;;24.77;62.17;99820.09;6176785;23;20001;-72
2022/08/19 05:15:36;;;;;;;19.95;12.80;;;;;;;24.89;62.04;99828.31;6177570;23;20009;-72
2022/08/19 05:23:30;;;;;;;20.88;12.00;;;;;;;24.97;61.09;99819.69;6176934;23;20412;-72
2022/08/19 05:25:55;;;;;;;18.33;12.65;;;;;;;25.03;60.87;99816.00;6173210;23;20005;-72
2022/08/19 05:28:21;;;;;;;15.63;11.82;;;;;;;25.20;60.50;99841.63;6172756;23;20040;-72
2022/08/19 05:30:48;;;;;;;17.13;12.25;;;;;;;25.28;60.10;99835.78;6173973;23;20017;-72
2022/08/19 05:33:14;;;;;;;20.48;12.20;;;;;;;25.35;59.85;99823.63;6176139;23;20376;-72
2022/08/19 05:35:40;;;;;;;22.08;11.52;;;;;;;25.41;59.48;99816.34;6175102;23;20009;-72
2022/08/19 05:38:08;;;;;;;21.55;13.18;;;;;;;25.50;59.20;99823.94;6175836;23;20419;-72
2022/08/19 05:40:38;;;;;;;12.80;10.73;;;;;;;25.66;59.16;99819.63;6176661;23;20866;-72
2022/08/19 05:43:06;;;;;;;16.98;11.50;;;;;;;25.77;58.60;99829.72;6176792;23;20092;-72
2022/08/19 05:45:37;;;;;;;17.02;11.50;;;;;;;25.86;58.20;99836.50;6175037;23;20009;-72
2022/08/19 05:48:02;;;;;;;17.00;11.02;;;;;;;25.88;57.88;99820.59;6176891;23;20338;-72
2022/08/19 05:50:28;;;;;;;18.55;11.40;;;;;;;26.08;57.22;99829.25;6174685;23;20141;-72
2022/08/19 05:52:53;;;;;;;16.73;11.13;;;;;;;26.03;57.06;99805.25;6176624;23;19997;-72
2022/08/19 05:55:20;;;;;;;12.88;11.48;;;;;;;26.09;56.86;99801.50;6176563;23;20004;-72
2022/08/19 05:57:46;;;;;;;17.38;12.00;;;;;;;26.24;56.62;99810.03;6174815;23;20091;-72
2022/08/19 06:00:13;;;;;;;13.40;11.07;;;;;;;26.31;56.39;99804.38;6176185;23;20012;-72
2022/08/19 06:02:39;;;;;;;12.35;10.57;;;;;;;26.19;56.01;99759.63;6174062;23;20009;-69
2022/08/19 06:05:08;;;;;;;15.50;11.57;;;;;;;26.59;55.86;99812.53;6176761;23;20457;-72
2022/08/19 06:07:37;;;;;;;14.48;10.20;;;;;;;26.80;55.28;99828.34;6176166;23;20023;-72
2022/08/19 06:10:07;;;;;;;20.13;11.23;;;;;;;26.94;55.32;99826.91;6175840;23;20001;-72
2022/08/19 06:12:34;;;;;;;13.05;10.70;;;;;;;27.08;54.60;99830.16;6175974;23;20491;-72
2022/08/19 06:15:07;;;;;;;16.30;10.98;;;;;;;27.22;54.22;99825.94;6176263;23;20015;-72
2022/08/19 06:17:34;;;;;;;14.70;11.02;;;;;;;27.11;54.03;99782.84;6174403;23;20025;-71
2022/08/19 06:20:00;;;;;;;11.05;9.90;;;;;;;27.42;53.47;99809.69;6176382;23;20008;-69
2022/08/19 06:22:27;;;;;;;13.65;10.38;;;;;;;27.56;53.00;99808.22;6174854;23;20037;-69
2022/08/19 06:24:53;;;;;;;12.35;10.48;;;;;;;27.82;52.56;99816.53;6174421;23;20008;-69
2022/08/19 06:27:20;;;;;;;17.52;10.57;;;;;;;27.91;52.20;99808.66;6176002;23;20012;-68
2022/08/19 06:29:46;;;;;;;15.52;10.43;;;;;;;28.10;51.55;99823.75;6175071;23;20009;-70
2022/08/19 06:32:15;;;;;;;25.00;10.10;;;;;;;28.04;51.36;99789.78;6176584;23;20359;-69
2022/08/19 06:34:40;;;;;;;20.67;11.25;;;;;;;28.26;50.63;99809.03;6174218;23;20005;-69
2022/08/19 06:37:06;;;;;;;14.30;9.45;;;;;;;28.31;50.57;99796.09;6175754;23;20011;-69
2022/08/19 06:39:37;;;;;;;18.08;10.45;;;;;;;28.51;50.16;99803.78;6175897;23;20005;-69
2022/08/19 06:42:06;;;;;;;10.57;9.32;;;;;;;28.71;49.79;99803.09;6173813;23;20012;-70
2022/08/19 06:44:34;;;;;;;13.52;9.57;;;;;;;28.82;49.75;99805.66;6176068;23;20008;-71
2022/08/19 06:47:05;;;;;;;13.00;9.73;;;;;;;28.95;48.93;99794.16;6174440;23;20017;-69
2022/08/19 06:49:31;;;;;;;16.45;9.77;;;;;;;29.03;48.73;99801.09;6176228;23;20382;-69
2022/08/19 06:51:58;;;;;;;12.93;9.45;;;;;;;29.06;48.23;99786.78;6176278;23;20029;-69
2022/08/19 06:54:25;;;;;;;12.65;9.40;;;;;;;29.12;48.16;99794.00;6175851;23;20413;-69
2022/08/19 06:56:51;;;;;;;14.73;9.32;;;;;;;29.27;47.88;99799.63;6175722;23;20426;-69
2022/08/19 06:59:20;;;;;;;11.52;8.82;;;;;;;29.30;47.84;99791.63;6175567;23;20008;-70
2022/08/19 07:01:48;;;;;;;14.05;9.40;;;;;;;29.37;47.63;99788.63;6174336;23;20004;-69
2022/08/19 07:04:16;;;;;;;14.38;10.32;;;;;;;29.44;47.42;99792.78;6174265;23;20013;-70
2022/08/19 07:06:43;;;;;;;12.40;9.48;;;;;;;29.65;47.58;99800.09;6169871;23;20448;-69
2022/08/19 07:09:11;;;;;;;12.18;9.10;;;;;;;29.81;47.06;99803.75;6174478;23;20012;-69
2022/08/19 07:11:36;;;;;;;12.95;9.18;;;;;;;29.93;46.94;99794.09;6175836;23;20031;-69
2022/08/19 07:14:03;;;;;;;14.40;9.15;;;;;;;29.90;46.60;99763.38;6176057;23;20005;-69
2022/08/19 07:16:29;;;;;;;14.82;9.07;;;;;;;30.24;46.38;99801.38;6176226;23;20460;-69
2022/08/19 07:18:56;;;;;;;11.60;9.20;;;;;;;30.38;45.95;99801.69;6174029;23;20021;-69
2022/08/19 07:21:27;;;;;;;11.18;8.60;;;;;;;30.43;45.67;99791.44;6175495;23;20005;-69
2022/08/19 07:23:54;;;;;;;11.20;8.30;;;;;;;30.44;45.48;99792.28;6174301;23;20016;-69
2022/08/19 07:26:26;;;;;;;12.00;8.27;;;;;;;30.70;45.28;99807.75;6173825;23;20033;-69
2022/08/19 07:28:53;;;;;;;14.18;9.15;;;;;;;30.82;44.75;99813.84;6175508;23;20119;-69
2022/08/19 07:31:22;;;;;;;14.55;8.32;;;;;;;30.97;44.52;99808.31;6173718;23;20088;-69
2022/08/19 07:33:50;;;;;;;11.50;8.30;;;;;;;31.06;44.02;99809.41;6176412;23;20001;-69
2022/08/19 07:36:19;;;;;;;10.32;8.30;;;;;;;31.06;43.56;99786.41;6175657;23;20008;-69
2022/08/19 07:38:47;;;;;;;9.77;8.40;;;;;;;31.25;43.63;99798.53;6171961;23;20009;-69
2022/08/19 07:41:17;;;;;;;13.45;8.48;;;;;;;31.31;43.58;99798.28;6175244;23;20009;-69
2022/08/19 07:43:44;;;;;;;10.63;7.95;;;;;;;31.41;43.47;99802.97;6177752;23;20009;-69
2022/08/19 07:46:10;;;;;;;18.02;8.05;;;;;;;31.46;42.76;99806.53;6175789;23;20032;-70
2022/08/19 07:48:36;;;;;;;17.63;7.28;;;;;;;31.52;42.59;99805.41;6177513;23;20013;-69
2022/08/19 07:51:07;;;;;;;12.98;7.65;;;;;;;31.59;42.16;99796.81;6177443;23;20047;-69
2022/08/19 07:53:32;;;;;;;13.23;7.45;;;;;;;31.70;42.06;99793.69;6175865;23;20012;-70
2022/08/19 07:56:03;;;;;;;10.57;7.95;;;;;;;31.76;41.65;99781.44;6175895;23;20433;-70
2022/08/19 07:58:31;;;;;;;9.55;6.80;;;;;;;31.77;41.12;99774.78;6176889;23;20004;-68
2022/08/19 08:00:57;;;;;;;9.90;7.15;;;;;;;31.88;40.73;99773.63;6175393;23;20337;-69
2022/08/19 08:09:10;;;;;;;12.35;7.35;;;;;;;32.14;40.74;99780.69;6176862;23;20025;-69
2022/08/19 08:09:12;;;;;;;12.80;7.82;;;;;;;32.30;40.12;99773.06;6177191;23;20012;-69
2022/08/19 08:11:49;;;;;;;11.85;6.93;;;;;;;32.43;39.67;99762.16;6175380;23;20005;-69
2022/08/19 08:14:27;;;;;;;8.85;6.55;;;;;;;32.51;39.79;99764.31;6176969;23;20144;-69
2022/08/19 08:16:53;;;;;;;8.57;6.15;;;;;;;32.61;39.13;99763.38;6177333;23;20021;-69
2022/08/19 08:19:21;;;;;;;8.23;5.72;;;;;;;32.72;38.86;99759.38;6177418;23;20910;-69
2022/08/19 08:21:48;;;;;;;10.82;6.45;;;;;;;32.89;38.32;99761.75;6176955;23;20043;-68
2022/08/19 08:24:13;;;;;;;7.38;6.22;;;;;;;32.96;38.29;99751.13;6174929;23;20028;-69
2022/08/19 08:26:40;;;;;;;12.82;6.55;;;;;;;33.03;37.92;99748.81;6175519;23;20389;-68
2022/08/19 08:29:07;;;;;;;10.77;6.00;;;;;;;33.18;37.50;99757.84;6174282;23;20008;-69
2022/08/19 08:31:33;;;;;;;9.43;5.65;;;;;;;33.39;37.08;99786.22;6177086;23;20084;-68
2022/08/19 08:33:59;;;;;;;7.45;6.50;;;;;;;33.49;37.18;99777.78;6176681;23;20449;-69
2022/08/19 08:36:25;;;;;;;9.23;6.25;;;;;;;33.60;36.95;99779.31;6177490;23;20062;-69
2022/08/19 08:38:51;;;;;;;8.15;6.13;;;;;;;33.68;36.47;99768.34;6176860;23;20056;-69
2022/08/19 08:41:37;;;;;;;13.90;6.63;;;;;;;33.84;36.39;99786.47;6177116;23;20008;-69
2022/08/19 08:44:04;;;;;;;11.82;6.03;;;;;;;33.74;35.72;99766.31;6176907;23;20044;-68
2022/08/19 08:46:38;;;;;;;7.82;6.78;;;;;;;33.84;35.89;99794.00;6176058;23;20005;-68
2022/08/19 08:49:08;;;;;;;;;;;;;;;33.81;36.13;99792.66;6175373;23;20096;-68
2022/08/19 08:51:46;;;;;;;12.05;7.13;;;;;;;33.87;35.83;99799.00;6177234;23;20280;-69
2022/08/19 08:54:14;;;;;;;7.95;6.38;;;;;;;33.86;35.69;99783.44;6176859;23;20004;-67
2022/08/19 08:56:44;;;;;;;11.30;6.35;;;;;;;34.02;35.39;99794.06;6176824;23;20013;-69
2022/08/19 08:59:17;;;;;;;10.25;6.45;;;;;;;34.15;35.73;99798.03;6175542;23;20020;-68
2022/08/19 09:01:43;;;;;;;10.53;6.50;;;;;;;34.25;35.28;99792.31;6175514;23;20036;-68
2022/08/19 09:04:11;;;;;;;8.30;6.18;;;;;;;34.31;35.12;99771.59;6175786;23;20016;-69
2022/08/19 09:06:49;;;;;;;8.65;6.53;;;;;;;34.36;35.37;99764.03;6176670;23;20017;-68
2022/08/19 09:09:23;;;;;;;12.43;7.25;;;;;;;34.52;34.86;99773.78;6177009;23;20552;-69
2022/08/19 09:12:00;;;;;;;10.02;7.15;;;;;;;34.53;34.92;99781.00;6176560;23;20005;-69
2022/08/19 09:14:40;;;;;;;11.85;6.78;;;;;;;34.32;34.94;99740.66;6177160;23;20429;-68
2022/08/19 09:17:07;;;;;;;9.73;6.38;;;;;;;34.51;34.84;99762.94;6174861;23;20066;-67
2022/08/19 09:19:35;;;;;;;8.18;6.38;;;;;;;34.67;34.55;99774.63;6176654;23;20016;-67
2022/08/19 09:22:00;;;;;;;13.05;6.20;;;;;;;34.77;33.90;99771.66;6175154;23;20100;-68
2022/08/19 09:24:27;;;;;;;8.88;5.70;;;;;;;34.78;33.63;99749.06;6176857;23;20079;-67
2022/08/19 09:26:52;;;;;;;7.25;6.57;;;;;;;34.90;33.48;99743.03;6176519;23;20090;-67
2022/08/19 09:29:18;;;;;;;7.00;6.30;;;;;;;35.15;33.18;99760.09;6174893;23;20429;-67
2022/08/19 09:31:43;;;;;;;11.93;6.82;;;;;;;35.17;33.04;99754.22;6175524;23;20059;-67
2022/08/19 09:34:09;;;;;;;11.60;6.07;;;;;;;35.28;33.32;99762.06;6176588;23;20032;-67
2022/08/19 09:36:38;;;;;;;10.85;6.65;;;;;;;35.36;32.87;99764.16;6174189;23;20059;-69
2022/08/19 09:39:05;;;;;;;11.63;5.72;;;;;;;35.50;32.91;99772.53;6175602;23;20068;-69
2022/08/19 09:41:33;;;;;;;8.82;6.03;;;;;;;35.32;32.54;99720.41;6176442;23;20425;-68
2022/08/19 09:43:59;;;;;;;10.55;6.72;;;;;;;35.56;31.98;99758.13;6176823;23;20419;-68
2022/08/19 09:46:27;;;;;;;10.25;6.03;;;;;;;35.55;32.09;99742.53;6173611;23;20009;-67
2022/08/19 09:48:53;;;;;;;11.68;6.15;;;;;;;35.61;32.04;99744.09;6175980;23;20392;-67
2022/08/19 09:51:22;;;;;;;11.60;6.20;;;;;;;35.67;31.89;99739.22;6173559;23;20016;-68
2022/08/19 09:53:50;;;;;;;8.52;6.00;;;;;;;35.80;31.23;99749.56;6174428;23;19997;-68
2022/08/19 09:56:18;;;;;;;8.52;5.80;;;;;;;35.86;31.03;99745.50;6173642;23;20433;-68
2022/08/19 09:58:44;;;;;;;11.77;5.85;;;;;;;35.92;31.24;99739.50;6173775;23;20009;-68
2022/08/19 10:01:19;;;;;;;7.85;6.15;;;;;;;36.01;30.58;99725.63;6176008;23;20095;-68
2022/08/19 10:03:51;;;;;;;6.47;5.45;;;;;;;36.09;30.53;99725.69;6175461;23;20385;-68
2022/08/19 10:06:20;;;;;;;7.90;5.78;;;;;;;36.13;30.90;99720.28;6176017;23;20037;-68
2022/08/19 10:08:46;;;;;;;9.13;5.90;;;;;;;36.14;30.61;99708.00;6175707;23;20059;-68
2022/08/19 10:11:15;;;;;;;7.47;5.38;;;;;;;36.21;30.39;99711.16;6175707;23;20009;-68
2022/08/19 10:13:42;;;;;;;10.23;5.63;;;;;;;36.19;30.47;99705.88;6175956;23;20028;-68
2022/08/19 10:16:12;;;;;;;12.23;5.35;;;;;;;36.12;30.60;99691.53;6175599;23;20481;-68
2022/08/19 10:18:38;;;;;;;7.75;4.95;;;;;;;36.20;29.50;99710.31;6175437;23;20083;-68
2022/08/19 10:21:10;;;;;;;7.75;5.22;;;;;;;36.13;29.12;99686.75;6175669;23;20005;-68
2022/08/19 10:23:37;;;;;;;7.78;5.35;;;;;;;36.30;29.14;99709.28;6173750;23;20114;-68
2022/08/19 10:26:07;;;;;;;6.35;5.28;;;;;;;36.31;29.45;99689.41;6173675;23;20005;-68
2022/08/19 10:28:36;;;;;;;7.00;4.88;;;;;;;36.37;29.25;99696.50;6174902;23;20055;-68
2022/08/19 10:31:14;;;;;;;6.95;5.15;;;;;;;36.33;29.29;99666.72;6174001;23;20032;-68
2022/08/19 10:33:41;;;;;;;8.73;5.55;;;;;;;36.46;29.19;99674.22;6171141;23;20004;-68
2022/08/19 10:36:17;;;;;;;6.35;5.72;;;;;;;36.49;29.21;99668.81;6173935;23;20467;-68
2022/08/19 10:38:45;;;;;;;6.65;5.82;;;;;;;36.50;29.00;99661.25;6174485;23;20112;-68
2022/08/19 10:41:18;;;;;;;8.98;5.57;;;;;;;36.66;29.37;99684.00;6175237;23;20381;-67
2022/08/19 10:43:45;;;;;;;10.52;6.00;;;;;;;36.62;29.01;99675.44;6173660;23;20013;-68
2022/08/19 10:46:13;;;;;;;9.05;5.00;;;;;;;36.66;28.99;99675.63;6175292;23;20005;-68
2022/08/19 10:48:40;;;;;;;7.75;4.47;;;;;;;36.75;28.10;99676.53;6175702;23;20013;-68
2022/08/19 10:53:50;;;;;;;6.03;5.32;;;;;;;36.86;28.51;99678.72;6175492;23;20016;-68
2022/08/19 10:59:03;;;;;;;8.70;5.30;;;;;;;36.96;28.15;99689.63;6176042;23;20019;-67
2022/08/19 11:01:30;;;;;;;5.82;5.10;;;;;;;37.00;28.32;99689.81;6176071;23;20740;-68
2022/08/19 11:03:57;;;;;;;10.25;5.43;;;;;;;36.97;28.46;99682.06;6175036;23;20044;-68
2022/08/19 11:06:24;;;;;;;9.25;5.18;;;;;;;36.96;28.87;99684.03;6173988;23;20021;-67
2022/08/19 11:08:51;;;;;;;7.53;5.30;;;;;;;36.94;28.64;99679.91;6175711;23;20493;-67
2022/08/19 11:11:16;;;;;;;8.93;4.45;;;;;;;37.03;28.31;99698.34;6175941;23;20449;-67
2022/08/19 11:13:44;;;;;;;9.15;4.93;;;;;;;36.98;28.27;99694.88;6175851;23;20005;-68
2022/08/19 11:16:17;;;;;;;7.45;4.80;;;;;;;37.02;28.52;99681.91;6176129;23;20140;-68
2022/08/19 11:18:46;;;;;;;8.32;5.60;;;;;;;36.92;28.17;99676.59;6173655;23;20032;-67
2022/08/19 11:21:17;;;;;;;7.72;5.15;;;;;;;36.96;28.26;99677.59;6175109;23;20012;-67
2022/08/19 11:23:45;;;;;;;8.45;5.00;;;;;;;37.02;28.04;99688.31;6175978;23;20591;-67
2022/08/19 11:26:11;;;;;;;7.97;4.13;;;;;;;36.95;27.89;99664.78;6174005;23;20135;-68
2022/08/19 11:28:37;;;;;;;6.93;4.40;;;;;;;37.14;27.94;99682.91;6175787;23;20430;-67
2022/08/19 11:31:03;;;;;;;6.22;4.07;;;;;;;37.22;27.88;99681.34;6175468;23;20092;-67
2022/08/19 11:33:30;;;;;;;10.10;5.05;;;;;;;37.29;27.50;99688.09;6173849;23;20001;-67
2022/08/19 11:36:00;;;;;;;8.50;4.43;;;;;;;37.36;27.32;99673.66;6175860;23;20519;-67
2022/08/19 11:38:26;;;;;;;7.13;4.18;;;;;;;37.38;27.37;99672.16;6175242;23;20005;-67
2022/08/19 11:40:57;;;;;;;7.93;4.22;;;;;;;37.42;27.27;99663.91;6174147;23;20079;-68
2022/08/19 11:43:22;;;;;;;5.75;4.20;;;;;;;37.53;27.22;99668.06;6175322;23;20436;-67
2022/08/19 11:45:48;;;;;;;8.75;5.13;;;;;;;37.53;27.64;99656.88;6175173;23;20001;-68
2022/08/19 11:48:14;;;;;;;10.23;4.45;;;;;;;37.63;26.97;99673.34;6174168;23;20079;-68